Time;durP1;ratioP1;P1;durP2;ratioP2;P2;SDS_P1;SDS_P2;PMS_P1;PMS_P2;Temp;Humidity;BMP_temperature;BMP_pressure;BME280_temperature;BME280_humidity;BME280_pressure;Samples;Min_cycle;Max_cycle;Signal;HPM_P1;HPM_P2
2022/04/02 00:00:31;;;;;;;18.83;13.80;;;1.40;99.90;;;;;;4953520;28;20256;-84
2022/04/02 00:02:56;;;;;;;16.27;14.57;;;1.40;99.90;;;;;;4940958;28;20799;-85
2022/04/02 00:05:22;;;;;;;14.97;13.33;;;1.40;99.90;;;;;;4951084;28;20437;-84
2022/04/02 00:07:47;;;;;;;16.30;13.10;;;1.40;99.90;;;;;;4959798;28;20193;-85
2022/04/02 00:10:13;;;;;;;17.17;14.93;;;1.30;99.90;;;;;;4959321;28;20193;-85
2022/04/02 00:12:41;;;;;;;17.90;15.13;;;1.20;99.90;;;;;;4946751;28;20186;-85
2022/04/02 00:15:07;;;;;;;15.97;14.27;;;1.20;99.90;;;;;;4952569;28;20725;-85
2022/04/02 00:17:34;;;;;;;15.40;13.77;;;1.40;99.90;;;;;;4945898;28;21299;-84
2022/04/02 00:19:59;;;;;;;16.20;14.20;;;1.40;99.90;;;;;;4955486;28;20687;-85
2022/04/02 00:22:28;;;;;;;16.90;15.10;;;1.30;99.90;;;;;;4974715;28;20274;-85
2022/04/02 00:24:53;;;;;;;18.00;15.30;;;1.30;99.90;;;;;;4961984;28;20182;-85
2022/04/02 00:27:19;;;;;;;17.57;15.07;;;1.30;99.90;;;;;;4957118;28;20994;-85
2022/04/02 00:29:44;;;;;;;18.80;15.37;;;1.30;99.90;;;;;;4959268;28;20197;-85
2022/04/02 00:32:10;;;;;;;18.93;15.57;;;1.20;99.90;;;;;;4970281;28;20194;-84
2022/04/02 00:34:36;;;;;;;20.90;17.30;;;1.30;99.90;;;;;;4956936;28;20182;-85
2022/04/02 00:37:01;;;;;;;18.53;14.97;;;1.30;99.90;;;;;;4950645;28;20278;-84
2022/04/02 00:39:27;;;;;;;18.70;15.70;;;1.20;99.90;;;;;;4956629;28;20597;-85
2022/04/02 00:41:53;;;;;;;20.50;16.93;;;1.20;99.90;;;;;;4954604;28;20285;-84
2022/04/02 00:44:20;;;;;;;17.97;15.97;;;1.20;99.90;;;;;;4947449;28;20796;-84
2022/04/02 00:46:47;;;;;;;19.07;16.60;;;1.30;99.90;;;;;;4949612;28;20193;-84
2022/04/02 00:49:14;;;;;;;20.40;16.40;;;1.40;99.90;;;;;;4947083;28;20460;-84
2022/04/02 00:51:41;;;;;;;18.50;15.57;;;1.40;99.90;;;;;;4949499;28;20579;-84
2022/04/02 00:54:15;;;;;;;19.60;16.90;;;1.50;99.90;;;;;;4950890;28;20448;-85
2022/04/02 00:56:42;;;;;;;18.40;14.80;;;1.50;99.90;;;;;;4952299;28;20454;-84
2022/04/02 00:59:08;;;;;;;15.87;14.07;;;1.50;99.90;;;;;;4949394;28;20480;-84
2022/04/02 01:01:35;;;;;;;17.20;15.10;;;1.40;99.90;;;;;;4943472;28;20517;-84
2022/04/02 01:04:02;;;;;;;20.00;16.63;;;1.40;99.90;;;;;;4945623;28;20448;-84
2022/04/02 01:06:29;;;;;;;20.07;16.50;;;1.50;99.90;;;;;;4952063;28;20463;-85
2022/04/02 01:08:55;;;;;;;18.50;16.10;;;1.40;99.90;;;;;;4954706;28;20455;-84
2022/04/02 01:11:21;;;;;;;22.33;17.60;;;1.40;99.90;;;;;;4960316;28;20444;-84
2022/04/02 01:13:50;;;;;;;19.23;16.40;;;1.40;99.90;;;;;;4944865;28;20441;-85
2022/04/02 01:16:15;;;;;;;18.40;15.40;;;1.40;99.90;;;;;;4937728;28;20456;-85
2022/04/02 01:18:41;;;;;;;18.10;15.47;;;1.50;99.90;;;;;;4962055;28;20452;-85
2022/04/02 01:21:09;;;;;;;17.73;14.43;;;1.50;99.90;;;;;;4961227;28;20217;-85
2022/04/02 01:23:35;;;;;;;17.03;15.23;;;1.50;99.90;;;;;;4950547;28;20955;-84
2022/04/02 01:26:01;;;;;;;18.20;15.40;;;1.60;99.90;;;;;;4964098;28;20470;-84
2022/04/02 01:28:33;;;;;;;17.80;15.30;;;1.60;99.90;;;;;;4956686;28;20233;-84
2022/04/02 01:31:05;;;;;;;21.20;16.00;;;1.60;99.90;;;;;;4967795;28;21261;-84
2022/04/02 01:33:30;;;;;;;16.30;14.50;;;1.60;99.90;;;;;;4962107;28;20441;-84
2022/04/02 01:36:11;;;;;;;16.83;15.00;;;1.70;99.90;;;;;;4965598;28;20445;-84
2022/04/02 01:38:36;;;;;;;19.77;15.93;;;1.70;99.90;;;;;;4955911;28;20263;-84
2022/04/02 01:41:02;;;;;;;20.20;16.00;;;1.60;99.90;;;;;;4949194;28;20484;-84
2022/04/02 01:43:31;;;;;;;17.87;15.43;;;1.60;99.90;;;;;;4952408;28;20191;-84
2022/04/02 01:45:58;;;;;;;16.60;14.80;;;1.50;99.90;;;;;;4947436;28;20200;-84
2022/04/02 01:48:24;;;;;;;22.60;17.20;;;1.50;99.90;;;;;;4951587;28;20463;-84
2022/04/02 01:50:51;;;;;;;19.37;15.27;;;1.50;99.90;;;;;;4953746;28;20607;-84
2022/04/02 01:53:17;;;;;;;18.17;14.90;;;1.50;99.90;;;;;;4972460;28;20527;-84
2022/04/02 01:55:43;;;;;;;19.50;15.93;;;1.40;99.90;;;;;;4951372;28;20457;-84
2022/04/02 01:58:09;;;;;;;20.13;16.07;;;1.40;99.90;;;;;;4953567;28;20434;-84
2022/04/02 02:00:35;;;;;;;18.17;15.90;;;1.40;99.90;;;;;;4949242;28;20480;-85
2022/04/02 02:03:01;;;;;;;19.13;15.73;;;1.40;99.90;;;;;;4961426;28;21017;-85
2022/04/02 02:05:27;;;;;;;19.50;15.57;;;1.40;99.90;;;;;;4951402;28;20213;-85
2022/04/02 02:07:53;;;;;;;20.53;16.50;;;1.40;99.90;;;;;;4967542;28;20453;-85
2022/04/02 02:10:19;;;;;;;18.03;14.23;;;1.50;99.90;;;;;;4945373;28;20209;-84
2022/04/02 02:12:46;;;;;;;18.40;16.40;;;1.50;99.90;;;;;;4947225;28;21128;-85
2022/04/02 02:15:18;;;;;;;16.80;14.93;;;1.60;99.90;;;;;;4966096;28;22351;-85
2022/04/02 02:17:47;;;;;;;18.27;15.07;;;1.50;99.90;;;;;;4952315;28;20806;-84
2022/04/02 02:20:14;;;;;;;15.73;13.50;;;1.60;99.90;;;;;;4951472;28;20478;-84
2022/04/02 02:22:40;;;;;;;18.50;15.70;;;1.60;99.90;;;;;;4963360;28;20467;-84
2022/04/02 02:25:08;;;;;;;20.30;16.13;;;1.60;99.90;;;;;;4976280;28;20434;-85
2022/04/02 02:27:34;;;;;;;19.27;15.20;;;1.40;99.90;;;;;;4953570;28;20445;-82
2022/04/02 02:29:59;;;;;;;19.23;16.70;;;1.50;99.90;;;;;;4947421;28;20471;-83
2022/04/02 02:32:25;;;;;;;18.03;15.80;;;1.40;99.90;;;;;;4949143;28;20445;-84
2022/04/02 02:37:37;;;;;;;17.03;15.03;;;1.60;99.90;;;;;;4966779;28;20471;-83
2022/04/02 02:40:04;;;;;;;17.50;13.93;;;1.60;99.90;;;;;;4955698;28;20476;-83
2022/04/02 02:42:32;;;;;;;16.30;13.77;;;1.60;99.90;;;;;;4960165;28;20453;-82
2022/04/02 02:44:58;;;;;;;16.50;13.23;;;1.60;99.90;;;;;;4967997;28;21039;-83
2022/04/02 02:47:23;;;;;;;17.10;13.60;;;1.60;99.90;;;;;;4953940;28;20460;-83
2022/04/02 02:49:53;;;;;;;15.87;13.83;;;1.50;99.90;;;;;;4950314;28;20647;-84
2022/04/02 02:52:19;;;;;;;17.30;13.77;;;1.60;99.90;;;;;;4957452;28;20710;-84
2022/04/02 02:54:44;;;;;;;17.33;13.63;;;1.50;99.90;;;;;;4956898;28;20441;-83
2022/04/02 02:57:10;;;;;;;15.10;13.40;;;1.50;99.90;;;;;;4958336;28;20226;-83
2022/04/02 02:59:43;;;;;;;15.00;13.00;;;1.50;99.90;;;;;;4973087;28;20194;-84
2022/04/02 03:02:11;;;;;;;13.50;11.63;;;1.50;99.90;;;;;;4951375;28;20453;-83
2022/04/02 03:04:37;;;;;;;14.03;12.60;;;1.50;99.90;;;;;;4961605;28;20601;-83
2022/04/02 03:07:17;;;;;;;15.70;14.10;;;1.50;99.90;;;;;;4962031;28;20455;-82
2022/04/02 03:09:43;;;;;;;15.87;13.87;;;1.50;99.90;;;;;;4948065;28;20444;-83
2022/04/02 03:12:11;;;;;;;14.90;12.63;;;1.50;99.90;;;;;;4952076;28;20459;-84
2022/04/02 03:14:36;;;;;;;13.97;12.13;;;1.50;99.90;;;;;;4968178;28;20272;-83
2022/04/02 03:17:02;;;;;;;13.30;11.90;;;1.60;99.90;;;;;;4943251;28;20509;-83
2022/04/02 03:19:28;;;;;;;13.70;12.30;;;1.60;99.90;;;;;;4943023;28;20469;-83
2022/04/02 03:21:53;;;;;;;14.90;10.93;;;1.60;99.90;;;;;;4969693;28;20651;-84
2022/04/02 03:24:19;;;;;;;14.63;12.20;;;1.50;99.90;;;;;;4956845;28;20654;-83
2022/04/02 03:26:45;;;;;;;12.33;11.13;;;1.50;99.90;;;;;;4951232;28;20189;-83
2022/04/02 03:29:10;;;;;;;12.97;11.40;;;1.60;99.90;;;;;;4947601;28;20189;-84
2022/04/02 03:31:36;;;;;;;16.60;12.13;;;1.60;99.90;;;;;;4948186;28;20187;-84
2022/04/02 03:34:01;;;;;;;15.40;10.70;;;1.60;99.90;;;;;;4969885;28;20248;-83
2022/04/02 03:36:27;;;;;;;12.53;11.10;;;1.60;99.90;;;;;;4964191;28;20185;-83
2022/04/02 03:38:53;;;;;;;14.63;13.10;;;1.40;99.90;;;;;;4940748;28;20316;-83
2022/04/02 03:41:19;;;;;;;16.00;11.70;;;1.30;99.90;;;;;;4970765;28;20472;-83
2022/04/02 03:43:46;;;;;;;14.10;12.17;;;1.40;99.90;;;;;;4947378;28;20201;-83
2022/04/02 03:48:56;;;;;;;14.83;12.40;;;1.40;99.90;;;;;;4960833;28;21213;-84
2022/04/02 03:51:21;;;;;;;13.53;12.00;;;1.30;99.90;;;;;;4962934;28;20450;-84
2022/04/02 03:53:47;;;;;;;13.07;11.67;;;1.40;99.90;;;;;;4950150;28;20214;-83
2022/04/02 03:56:13;;;;;;;14.93;11.10;;;1.30;99.90;;;;;;4946059;28;20273;-84
2022/04/02 03:58:39;;;;;;;13.97;12.50;;;1.30;99.90;;;;;;4944625;28;20194;-84
2022/04/02 04:01:04;;;;;;;14.70;12.07;;;1.30;99.90;;;;;;4959182;28;20532;-84
2022/04/02 04:03:30;;;;;;;14.37;12.87;;;1.30;99.90;;;;;;4944673;28;20226;-84
2022/04/02 04:05:56;;;;;;;15.83;13.37;;;1.30;99.90;;;;;;4944694;28;20193;-84
2022/04/02 04:08:22;;;;;;;14.53;12.47;;;1.30;99.90;;;;;;4960982;28;20182;-83
2022/04/02 04:10:49;;;;;;;17.07;11.50;;;1.20;99.90;;;;;;4960131;28;21044;-83
2022/04/02 04:13:14;;;;;;;13.90;12.00;;;1.30;99.90;;;;;;4953397;28;21431;-84
2022/04/02 04:15:42;;;;;;;14.70;11.80;;;1.30;99.90;;;;;;4964066;28;20567;-82
2022/04/02 04:18:10;;;;;;;13.70;11.87;;;1.30;99.90;;;;;;4951686;28;20239;-83
2022/04/02 04:20:36;;;;;;;13.40;10.40;;;1.20;99.90;;;;;;4950182;28;20499;-84
2022/04/02 04:23:01;;;;;;;24.10;12.83;;;1.30;99.90;;;;;;4976944;28;20469;-84
2022/04/02 04:25:39;;;;;;;13.00;10.70;;;1.30;99.90;;;;;;4972494;28;20197;-84
2022/04/02 04:28:05;;;;;;;13.60;11.07;;;1.30;99.90;;;;;;4954932;28;20276;-84
2022/04/02 04:30:32;;;;;;;13.60;11.10;;;1.20;99.90;;;;;;4946310;28;20457;-83
2022/04/02 04:32:57;;;;;;;13.60;11.70;;;1.20;99.90;;;;;;4960078;28;20449;-83
2022/04/02 04:35:24;;;;;;;13.40;11.00;;;1.30;99.90;;;;;;4959250;28;20193;-84
2022/04/02 04:37:51;;;;;;;12.20;10.80;;;1.20;99.90;;;;;;4948954;28;20196;-83
2022/04/02 04:40:18;;;;;;;11.73;10.03;;;1.30;99.90;;;;;;4949196;28;20482;-84
2022/04/02 04:42:44;;;;;;;11.63;10.30;;;1.30;99.90;;;;;;4949216;28;21009;-83
2022/04/02 04:45:14;;;;;;;10.70;9.60;;;1.20;99.90;;;;;;4963517;28;20228;-84
2022/04/02 04:47:46;;;;;;;14.57;10.83;;;1.20;99.90;;;;;;4945922;28;20284;-84
2022/04/02 04:50:12;;;;;;;13.63;10.30;;;1.20;99.90;;;;;;4951100;28;20444;-84
2022/04/02 04:52:38;;;;;;;10.67;9.57;;;1.20;99.90;;;;;;4961576;28;21096;-84
2022/04/02 04:55:04;;;;;;;10.83;9.73;;;1.20;99.90;;;;;;4962009;28;20285;-82
2022/04/02 04:57:30;;;;;;;11.87;10.63;;;1.10;99.90;;;;;;4965956;28;20441;-84
2022/04/02 04:59:56;;;;;;;12.43;10.60;;;1.00;99.90;;;;;;4951342;28;21810;-84
2022/04/02 05:02:22;;;;;;;11.03;9.67;;;0.90;99.90;;;;;;4954563;28;20201;-84
2022/04/02 05:04:49;;;;;;;11.87;10.03;;;1.00;99.90;;;;;;4974057;28;20448;-84
2022/04/02 05:07:15;;;;;;;12.23;9.87;;;1.00;99.90;;;;;;4962520;28;20460;-84
2022/04/02 05:09:42;;;;;;;13.70;9.63;;;1.00;99.90;;;;;;4960999;28;20446;-84
2022/04/02 05:12:08;;;;;;;11.17;9.67;;;1.00;99.90;;;;;;4957874;28;20792;-85
2022/04/02 05:14:35;;;;;;;14.83;9.27;;;1.00;99.90;;;;;;4952672;28;20827;-84
2022/04/02 05:17:00;;;;;;;10.23;8.97;;;1.10;99.90;;;;;;4968325;28;20453;-84
2022/04/02 05:19:29;;;;;;;11.40;8.60;;;1.00;99.90;;;;;;4947059;28;20814;-83
2022/04/02 05:21:55;;;;;;;13.77;8.87;;;0.80;99.90;;;;;;4958483;28;20750;-84
2022/04/02 05:24:21;;;;;;;10.73;9.50;;;0.90;99.90;;;;;;4958081;28;20444;-84
2022/04/02 05:26:48;;;;;;;11.93;8.50;;;1.00;99.90;;;;;;4962177;28;20240;-84
2022/04/02 05:29:14;;;;;;;9.97;8.90;;;1.00;99.90;;;;;;4959173;28;20453;-82
2022/04/02 05:31:41;;;;;;;9.83;8.53;;;1.10;99.90;;;;;;4949514;28;21086;-82
2022/04/02 05:34:09;;;;;;;9.90;8.90;;;1.10;99.90;;;;;;4977673;28;20194;-84
2022/04/02 05:36:38;;;;;;;10.60;8.30;;;0.90;99.90;;;;;;4955918;28;21024;-83
2022/04/02 05:39:04;;;;;;;9.73;8.70;;;1.00;99.90;;;;;;4952149;28;20453;-83
2022/04/02 05:41:30;;;;;;;11.37;9.17;;;1.10;99.90;;;;;;4951141;28;20484;-83
2022/04/02 05:43:56;;;;;;;13.23;8.30;;;1.30;99.90;;;;;;4954609;28;20780;-84
2022/04/02 05:46:22;;;;;;;9.10;7.60;;;1.30;99.90;;;;;;4947037;28;20636;-83
2022/04/02 05:48:47;;;;;;;9.53;8.60;;;1.40;99.90;;;;;;4947462;28;20211;-82
2022/04/02 05:51:13;;;;;;;10.33;8.20;;;1.40;99.90;;;;;;4955553;28;20453;-84
2022/04/02 05:53:39;;;;;;;9.87;8.73;;;1.50;99.90;;;;;;4977246;28;21344;-84
2022/04/02 05:56:04;;;;;;;10.00;9.00;;;1.50;99.90;;;;;;4963636;28;20217;-84
2022/04/02 05:58:30;;;;;;;9.80;8.27;;;1.40;99.90;;;;;;4943562;28;20193;-82
2022/04/02 06:00:56;;;;;;;10.70;9.60;;;1.30;99.90;;;;;;4942055;28;20312;-83
2022/04/02 06:03:21;;;;;;;11.03;9.87;;;1.30;99.90;;;;;;4949128;28;20537;-83
2022/04/02 06:05:48;;;;;;;9.50;8.60;;;1.20;99.90;;;;;;4940825;28;20228;-83
2022/04/02 06:08:15;;;;;;;12.07;10.13;;;1.30;99.90;;;;;;4941216;28;20275;-82
2022/04/02 06:10:42;;;;;;;9.23;8.23;;;1.40;99.90;;;;;;4948188;28;20448;-83
2022/04/02 06:13:11;;;;;;;10.20;8.77;;;1.40;99.90;;;;;;4949134;28;20529;-82
2022/04/02 06:15:37;;;;;;;16.60;10.17;;;1.40;99.90;;;;;;4955608;28;20454;-82
2022/04/02 06:18:03;;;;;;;18.57;12.80;;;1.30;99.90;;;;;;4964050;28;20807;-82
2022/04/02 06:20:29;;;;;;;12.73;10.10;;;1.30;99.90;;;;;;4950741;28;20268;-82
2022/04/02 06:22:55;;;;;;;12.90;10.63;;;1.40;99.90;;;;;;4959055;28;20436;-83
2022/04/02 06:25:21;;;;;;;10.50;9.40;;;1.50;99.90;;;;;;4951708;28;20263;-82
2022/04/02 06:27:47;;;;;;;25.80;15.73;;;1.40;99.90;;;;;;4967142;28;20208;-82
2022/04/02 06:30:17;;;;;;;21.57;14.30;;;1.30;99.90;;;;;;4954553;28;20548;-83
2022/04/02 06:32:43;;;;;;;16.27;12.10;;;1.40;99.90;;;;;;4948271;28;20870;-83
2022/04/02 06:35:09;;;;;;;15.60;9.13;;;1.50;99.90;;;;;;4965309;28;20472;-82
2022/04/02 06:37:36;;;;;;;11.27;10.17;;;1.50;99.90;;;;;;4946924;28;20445;-83
2022/04/02 06:40:04;;;;;;;8.93;8.03;;;1.60;99.90;;;;;;4958943;28;20454;-84
2022/04/02 06:42:30;;;;;;;8.80;8.00;;;1.80;99.90;;;;;;4942341;28;20460;-83
2022/04/02 06:44:55;;;;;;;12.30;10.50;;;1.70;99.90;;;;;;4943073;28;20440;-84
2022/04/02 06:47:29;;;;;;;12.67;11.37;;;1.50;99.90;;;;;;4950251;28;20476;-84
2022/04/02 06:49:55;;;;;;;12.40;10.97;;;1.40;99.90;;;;;;4953479;28;20213;-83
2022/04/02 06:52:21;;;;;;;9.80;8.80;;;1.40;99.90;;;;;;4950750;28;20446;-83
2022/04/02 06:54:47;;;;;;;10.03;9.10;;;1.30;99.90;;;;;;4958393;28;20503;-84
2022/04/02 06:57:22;;;;;;;10.43;9.43;;;1.30;99.90;;;;;;4948505;28;21192;-83
2022/04/02 06:59:49;;;;;;;11.03;9.13;;;1.50;99.90;;;;;;4953813;28;20538;-83
2022/04/02 07:02:21;;;;;;;13.97;10.53;;;1.50;99.90;;;;;;4965758;28;20497;-82
2022/04/02 07:04:48;;;;;;;16.00;12.10;;;1.40;99.90;;;;;;4958691;28;21329;-83
2022/04/02 07:07:16;;;;;;;8.70;7.90;;;1.60;99.90;;;;;;4958497;28;20460;-82
2022/04/02 07:09:42;;;;;;;9.03;8.13;;;1.70;99.90;;;;;;4937144;28;20459;-83
2022/04/02 07:12:09;;;;;;;10.23;8.17;;;1.70;99.90;;;;;;4941230;28;20990;-84
2022/04/02 07:14:34;;;;;;;8.57;7.67;;;2.00;99.90;;;;;;4946056;28;20190;-83
2022/04/02 07:17:02;;;;;;;8.80;7.90;;;2.00;99.90;;;;;;4944918;28;20444;-83
2022/04/02 07:19:30;;;;;;;7.97;7.20;;;2.00;99.90;;;;;;4939238;28;20182;-83
2022/04/02 07:21:55;;;;;;;7.77;7.07;;;2.20;99.90;;;;;;4949369;28;20480;-86
2022/04/02 07:24:21;;;;;;;7.10;6.40;;;2.00;99.90;;;;;;4950898;28;20495;-81
2022/04/02 07:26:48;;;;;;;7.63;6.93;;;2.20;99.90;;;;;;4940819;28;20240;-82
2022/04/02 07:29:17;;;;;;;11.00;6.97;;;2.40;99.90;;;;;;4939616;28;20443;-81
2022/04/02 07:31:46;;;;;;;8.03;7.23;;;2.30;99.90;;;;;;4957379;28;20441;-84
2022/04/02 07:34:13;;;;;;;8.00;7.30;;;2.30;99.90;;;;;;4952463;28;20454;-86
2022/04/02 07:37:11;;;;;;;7.13;6.43;;;2.60;99.90;;;;;;4947889;28;20446;-84
2022/04/02 07:39:50;;;;;;;7.40;6.80;;;2.70;99.90;;;;;;4924455;28;20512;-85
2022/04/02 07:42:32;;;;;;;8.43;6.90;;;2.80;99.90;;;;;;4947447;28;20482;-87
2022/04/02 07:45:04;;;;;;;6.20;5.60;;;2.90;99.90;;;;;;4939836;28;20440;-86
2022/04/02 07:47:38;;;;;;;7.23;6.53;;;3.00;99.90;;;;;;4957371;28;20459;-89
2022/04/02 07:50:13;;;;;;;6.50;5.87;;;2.90;99.90;;;;;;4946944;28;20446;-86
2022/04/02 07:52:45;;;;;;;7.70;6.33;;;3.00;99.90;;;;;;4940471;28;20772;-87
2022/04/02 07:55:12;;;;;;;7.40;6.70;;;3.00;99.90;;;;;;4956973;28;20461;-87
2022/04/02 07:57:52;;;;;;;8.07;7.27;;;2.90;99.90;;;;;;4943587;28;21867;-87
2022/04/02 08:00:20;;;;;;;9.90;7.13;;;2.70;99.90;;;;;;4951143;28;20478;-86
2022/04/02 08:02:48;;;;;;;7.10;6.40;;;2.60;99.90;;;;;;4931547;28;20449;-86
2022/04/02 08:05:18;;;;;;;7.97;7.03;;;2.50;99.90;;;;;;4940710;28;20450;-86
2022/04/02 08:07:49;;;;;;;7.47;6.27;;;2.70;99.90;;;;;;4951960;28;20850;-87
2022/04/02 08:10:19;;;;;;;7.03;6.47;;;2.70;99.90;;;;;;4932638;28;20519;-87
2022/04/02 08:12:45;;;;;;;7.33;6.47;;;2.50;99.90;;;;;;4930258;28;20488;-86
2022/04/02 08:15:13;;;;;;;7.37;6.67;;;2.50;99.90;;;;;;4934323;28;20445;-85
2022/04/02 08:17:44;;;;;;;8.20;7.40;;;2.60;99.90;;;;;;4935094;28;20457;-86
2022/04/02 08:20:11;;;;;;;7.90;6.90;;;2.70;99.90;;;;;;4937602;28;20451;-86
2022/04/02 08:22:37;;;;;;;7.37;6.57;;;2.60;99.90;;;;;;4944009;28;20485;-86
2022/04/02 08:25:05;;;;;;;7.00;6.30;;;2.60;99.90;;;;;;4947682;28;20446;-85
2022/04/02 08:27:45;;;;;;;9.53;7.03;;;2.70;99.90;;;;;;4932486;28;21070;-86
2022/04/02 08:30:15;;;;;;;7.00;6.30;;;2.80;99.90;;;;;;4944132;28;20451;-86
2022/04/02 08:32:53;;;;;;;7.20;6.50;;;3.00;99.90;;;;;;4966109;28;20522;-87
2022/04/02 08:35:29;;;;;;;6.47;5.87;;;3.00;99.90;;;;;;4952359;28;20486;-86
2022/04/02 08:38:13;;;;;;;7.03;6.43;;;3.00;99.90;;;;;;4945582;28;20770;-86
2022/04/02 08:41:22;;;;;;;6.13;5.60;;;3.10;99.90;;;;;;4948500;28;20478;-86
2022/04/02 08:44:26;;;;;;;6.73;6.03;;;2.90;99.90;;;;;;4947338;28;20805;-86
2022/04/02 08:47:30;;;;;;;6.13;5.53;;;3.40;99.90;;;;;;4953361;28;20446;-85
2022/04/02 08:50:13;;;;;;;9.77;7.10;;;3.60;99.90;;;;;;4924821;28;20546;-86
2022/04/02 08:52:53;;;;;;;10.07;6.67;;;3.40;99.90;;;;;;4945957;28;20448;-86
2022/04/02 08:55:29;;;;;;;8.37;5.93;;;3.10;99.90;;;;;;4952629;28;20444;-85
2022/04/02 08:58:22;;;;;;;12.40;8.17;;;2.60;99.90;;;;;;4952245;28;20449;-86
2022/04/02 09:01:04;;;;;;;7.33;6.73;;;2.80;99.90;;;;;;4949061;28;20889;-85
2022/04/02 09:03:49;;;;;;;6.13;5.53;;;3.10;99.90;;;;;;4935004;28;20461;-86
2022/04/02 09:06:39;;;;;;;6.60;6.00;;;3.00;99.90;;;;;;4944336;28;20441;-86
2022/04/02 09:09:26;;;;;;;6.40;5.17;;;3.00;99.90;;;;;;4937020;28;20527;-86
2022/04/02 09:12:27;;;;;;;6.43;5.60;;;2.90;99.90;;;;;;4952006;28;20464;-86
2022/04/02 09:15:13;;;;;;;5.97;5.23;;;3.00;99.90;;;;;;4933293;28;20951;-84
2022/04/02 09:18:00;;;;;;;6.60;6.00;;;2.90;99.90;;;;;;4955239;28;20452;-85
2022/04/02 09:21:00;;;;;;;6.47;5.83;;;2.90;99.90;;;;;;4954488;28;20835;-86
2022/04/02 09:23:50;;;;;;;6.73;5.33;;;3.10;99.90;;;;;;4939627;28;20442;-85
2022/04/02 09:26:37;;;;;;;6.70;6.10;;;3.10;99.90;;;;;;4929833;28;20817;-86
2022/04/02 09:29:14;;;;;;;6.73;6.13;;;3.10;99.90;;;;;;4943967;28;20502;-86
2022/04/02 09:32:05;;;;;;;6.30;5.70;;;3.20;99.90;;;;;;4950394;28;20525;-86
2022/04/02 09:34:30;;;;;;;7.57;6.60;;;3.20;99.90;;;;;;4934953;28;20489;-86
2022/04/02 09:37:41;;;;;;;9.60;6.00;;;3.30;99.90;;;;;;4953132;28;20835;-86
2022/04/02 09:40:11;;;;;;;5.97;5.47;;;3.40;99.90;;;;;;4940305;28;20198;-86
2022/04/02 09:42:50;;;;;;;6.90;5.80;;;3.30;99.90;;;;;;4953513;28;20444;-86
2022/04/02 09:45:22;;;;;;;6.80;5.87;;;3.50;99.90;;;;;;4938264;28;20993;-86
2022/04/02 09:47:55;;;;;;;6.47;5.87;;;3.40;99.90;;;;;;4954863;28;20474;-87
2022/04/02 09:50:30;;;;;;;6.67;6.07;;;3.60;99.90;;;;;;4945605;28;20525;-86
2022/04/02 09:53:16;;;;;;;9.23;6.57;;;3.60;99.90;;;;;;4967562;28;20853;-85
2022/04/02 09:56:05;;;;;;;6.77;6.17;;;3.50;99.90;;;;;;4949460;28;20446;-85
2022/04/02 09:58:40;;;;;;;5.70;5.20;;;3.40;99.90;;;;;;4937269;28;20459;-86
2022/04/02 10:01:08;;;;;;;7.33;6.43;;;3.50;99.90;;;;;;4933587;28;20483;-86
2022/04/02 10:04:00;;;;;;;7.27;6.50;;;3.40;99.90;;;;;;4940920;28;20818;-85
2022/04/02 10:06:56;;;;;;;7.40;6.70;;;3.20;99.90;;;;;;4938867;28;20469;-87
2022/04/02 10:09:27;;;;;;;8.30;7.10;;;3.00;99.90;;;;;;4918860;28;20438;-87
2022/04/02 10:11:55;;;;;;;8.70;7.90;;;2.80;99.90;;;;;;4937111;28;20451;-87
2022/04/02 10:14:23;;;;;;;8.33;7.43;;;3.00;99.90;;;;;;4942899;28;20446;-87
2022/04/02 10:17:01;;;;;;;8.93;7.90;;;3.00;99.90;;;;;;4938315;28;21538;-86
2022/04/02 10:19:31;;;;;;;7.40;6.70;;;3.00;99.90;;;;;;4955224;28;20468;-86
2022/04/02 10:22:05;;;;;;;8.57;7.77;;;3.50;99.90;;;;;;4944006;28;20486;-86
2022/04/02 10:24:36;;;;;;;8.20;6.60;;;3.20;99.90;;;;;;4956909;28;20584;-86
2022/04/02 10:27:03;;;;;;;8.30;7.47;;;3.10;99.90;;;;;;4949521;28;20458;-86
2022/04/02 10:29:50;;;;;;;8.17;7.33;;;3.10;99.90;;;;;;4936846;28;20465;-86
2022/04/02 10:32:31;;;;;;;8.03;7.23;;;3.60;99.90;;;;;;4936691;28;20511;-86
2022/04/02 10:35:06;;;;;;;10.47;7.97;;;3.50;99.90;;;;;;4938938;28;20456;-85
2022/04/02 10:37:48;;;;;;;8.83;8.03;;;3.80;99.90;;;;;;4940257;28;20444;-86
2022/04/02 10:40:18;;;;;;;8.17;7.37;;;4.00;99.90;;;;;;4944622;28;21162;-86
2022/04/02 10:43:06;;;;;;;8.10;7.30;;;4.30;99.90;;;;;;4953645;28;21692;-85
2022/04/02 10:45:36;;;;;;;10.37;7.80;;;4.40;99.90;;;;;;4944633;28;20449;-84
2022/04/02 10:48:08;;;;;;;10.20;8.13;;;3.70;99.90;;;;;;4932479;28;20472;-85
2022/04/02 10:50:35;;;;;;;17.10;14.43;;;3.70;99.90;;;;;;4942026;28;20465;-85
2022/04/02 10:53:02;;;;;;;8.93;8.03;;;3.80;99.90;;;;;;4944479;28;20448;-85
2022/04/02 10:55:29;;;;;;;9.00;8.10;;;3.80;99.90;;;;;;4940453;28;20803;-85
2022/04/02 10:57:59;;;;;;;8.70;7.80;;;3.70;99.90;;;;;;4958089;28;20596;-85
2022/04/02 11:00:29;;;;;;;9.50;8.60;;;4.00;99.90;;;;;;4957379;28;21004;-85
2022/04/02 11:03:25;;;;;;;10.07;9.03;;;4.30;99.90;;;;;;4948245;28;20966;-86
2022/04/02 11:05:51;;;;;;;8.70;7.93;;;4.30;99.90;;;;;;4935597;28;20475;-84
2022/04/02 11:08:20;;;;;;;9.70;8.40;;;4.20;99.90;;;;;;4937287;28;20441;-85
2022/04/02 11:10:47;;;;;;;10.10;9.10;;;4.10;99.90;;;;;;4934993;28;20437;-84
2022/04/02 11:13:32;;;;;;;9.33;8.53;;;4.10;99.90;;;;;;4937221;28;20540;-86
2022/04/02 11:15:58;;;;;;;64.80;49.97;;;4.00;99.90;;;;;;4943109;28;20921;-87
2022/04/02 11:18:25;;;;;;;9.23;8.33;;;3.70;99.90;;;;;;4955403;28;20445;-86
2022/04/02 11:21:02;;;;;;;14.60;13.20;;;3.80;99.90;;;;;;4938358;28;20228;-86
2022/04/02 11:23:56;;;;;;;8.33;7.63;;;3.50;99.90;;;;;;4947143;28;20485;-86
2022/04/02 11:26:26;;;;;;;8.90;8.03;;;3.60;99.90;;;;;;4937182;28;20455;-87
2022/04/02 11:28:55;;;;;;;8.20;7.40;;;3.70;99.90;;;;;;4936242;28;20440;-88
2022/04/02 11:31:28;;;;;;;11.60;9.60;;;3.50;99.90;;;;;;4933766;28;20781;-87
2022/04/02 11:33:54;;;;;;;13.43;9.67;;;3.20;99.90;;;;;;4942393;28;21635;-88
2022/04/02 11:36:43;;;;;;;9.37;8.00;;;2.90;99.90;;;;;;4937789;28;20576;-86
2022/04/02 11:39:33;;;;;;;9.90;8.97;;;2.60;99.90;;;;;;4957319;28;20454;-87
2022/04/02 11:42:03;;;;;;;9.27;7.93;;;3.20;99.90;;;;;;4950569;28;20483;-88
2022/04/02 11:44:38;;;;;;;8.67;7.87;;;3.70;99.90;;;;;;4937267;28;20465;-88
2022/04/02 11:47:07;;;;;;;9.27;8.47;;;4.50;99.90;;;;;;4936644;28;20452;-87
2022/04/02 11:49:46;;;;;;;9.50;8.50;;;4.60;99.90;;;;;;4950554;28;20571;-85
2022/04/02 11:52:14;;;;;;;9.03;8.20;;;5.10;99.90;;;;;;4956705;28;20444;-84
2022/04/02 11:54:57;;;;;;;9.63;8.70;;;5.00;99.90;;;;;;4942153;28;20444;-84
2022/04/02 11:57:22;;;;;;;11.13;10.03;;;4.70;99.90;;;;;;4939080;28;20523;-81
2022/04/02 11:59:51;;;;;;;9.27;8.37;;;4.10;99.90;;;;;;4936716;28;20445;-84
2022/04/02 12:02:37;;;;;;;9.60;8.60;;;4.00;99.90;;;;;;4953210;28;20880;-84
2022/04/02 12:05:05;;;;;;;9.53;8.30;;;3.70;99.90;;;;;;4932892;28;20453;-85
2022/04/02 12:07:40;;;;;;;9.53;8.70;;;3.50;99.90;;;;;;4937405;28;20431;-85
2022/04/02 12:10:14;;;;;;;9.87;8.97;;;3.30;99.90;;;;;;4947862;28;20448;-84
2022/04/02 12:12:48;;;;;;;10.10;9.10;;;3.20;99.90;;;;;;4938906;28;20442;-84
2022/04/02 12:15:17;;;;;;;10.50;9.40;;;3.50;99.90;;;;;;4942255;28;20452;-83
2022/04/02 12:17:51;;;;;;;10.30;9.30;;;3.60;99.90;;;;;;4959246;28;20454;-84
2022/04/02 12:20:29;;;;;;;10.73;9.73;;;3.70;99.90;;;;;;4939729;28;20767;-84
2022/04/02 12:23:36;;;;;;;10.90;9.80;;;3.50;99.90;;;;;;4952395;28;20473;-83
2022/04/02 12:26:02;;;;;;;14.20;11.67;;;3.80;99.90;;;;;;4890874;29;20443;-84
2022/04/02 12:28:29;;;;;;;10.40;9.30;;;4.10;99.90;;;;;;4930623;28;21135;-83
2022/04/02 12:31:04;;;;;;;13.80;10.13;;;4.20;99.90;;;;;;4940222;28;20524;-83
2022/04/02 12:33:31;;;;;;;11.90;10.70;;;4.30;99.90;;;;;;4943574;28;20490;-84
2022/04/02 12:36:09;;;;;;;10.80;9.60;;;4.30;99.90;;;;;;4941963;28;20436;-85
2022/04/02 12:38:37;;;;;;;11.20;10.10;;;4.20;99.90;;;;;;4944121;28;20830;-84
2022/04/02 12:41:04;;;;;;;10.20;9.13;;;3.90;99.90;;;;;;4949980;28;20513;-83
2022/04/02 12:43:37;;;;;;;10.90;9.83;;;3.80;99.90;;;;;;4932659;28;21044;-83
2022/04/02 12:46:03;;;;;;;10.97;9.97;;;3.40;99.90;;;;;;4945956;28;20456;-85
2022/04/02 12:48:49;;;;;;;10.93;9.93;;;3.50;99.90;;;;;;4928717;28;20546;-84
2022/04/02 12:51:19;;;;;;;9.70;8.73;;;4.00;99.90;;;;;;4960151;28;20470;-85
2022/04/02 12:53:55;;;;;;;10.10;9.20;;;4.50;99.90;;;;;;4946589;28;20449;-83
2022/04/02 12:56:42;;;;;;;10.60;9.60;;;4.60;99.90;;;;;;4941668;28;20560;-84
2022/04/02 12:59:19;;;;;;;10.30;9.30;;;4.60;99.90;;;;;;4945983;28;20843;-85
2022/04/02 13:01:46;;;;;;;10.60;9.50;;;4.50;99.90;;;;;;4938677;28;20483;-90
2022/04/02 13:04:52;;;;;;;10.57;9.57;;;4.60;99.90;;;;;;4946136;28;20445;-84
2022/04/02 13:07:25;;;;;;;9.70;8.80;;;4.70;99.90;;;;;;4938595;28;20452;-83
2022/04/02 13:09:54;;;;;;;10.07;9.07;;;4.60;99.90;;;;;;4955290;28;21537;-84